createdAt,value
2017-12-28T00:02:26.638Z,97963
2017-12-28T00:04:54.943Z,97977
2017-12-28T00:07:22.843Z,97966
2017-12-28T00:09:50.826Z,97972
2017-12-28T00:12:18.756Z,97968
2017-12-28T00:14:46.667Z,97978
2017-12-28T00:17:14.625Z,97982
2017-12-28T00:19:42.560Z,97978
2017-12-28T00:22:11.047Z,97977
2017-12-28T00:24:38.975Z,97974
2017-12-28T00:27:06.914Z,97974
2017-12-28T00:29:35.264Z,97974
2017-12-28T00:32:03.448Z,97970
2017-12-28T00:34:31.385Z,97963
2017-12-28T00:37:00.066Z,97966
2017-12-28T00:39:28.735Z,97963
2017-12-28T00:41:56.969Z,97964
2017-12-28T00:44:24.942Z,97967
2017-12-28T00:46:53.114Z,97957
2017-12-28T00:49:21.108Z,97957
2017-12-28T00:51:49.599Z,97958
2017-12-28T00:54:18.630Z,97958
2017-12-28T00:56:47.315Z,97961
2017-12-28T00:59:16.135Z,97958
2017-12-28T01:01:44.109Z,97960
2017-12-28T01:04:12.791Z,97970
2017-12-28T01:06:40.831Z,97969
2017-12-28T01:09:09.514Z,97964
2017-12-28T01:11:38.194Z,97978
2017-12-28T01:14:06.890Z,97986
2017-12-28T01:16:35.574Z,97983
2017-12-28T01:19:04.363Z,97985
2017-12-28T01:21:32.758Z,97982
2017-12-28T01:24:00.723Z,97980
2017-12-28T01:26:28.815Z,97986
2017-12-28T01:28:56.759Z,97988
2017-12-28T01:31:25.433Z,98001
2017-12-28T01:33:54.456Z,97999
2017-12-28T01:36:22.458Z,97996
2017-12-28T01:38:50.383Z,97996
2017-12-28T01:41:18.793Z,97983
2017-12-28T01:43:46.775Z,97986
2017-12-28T01:46:14.691Z,97993
2017-12-28T01:48:43.367Z,97990
2017-12-28T01:51:11.335Z,97999
2017-12-28T01:53:40.052Z,98005
2017-12-28T01:56:08.047Z,97996
2017-12-28T01:58:36.400Z,98000
2017-12-28T02:01:04.346Z,97996
2017-12-28T02:03:32.327Z,98005
2017-12-28T02:06:00.235Z,97999
2017-12-28T02:08:28.234Z,97996
2017-12-28T02:10:56.142Z,97989
2017-12-28T02:13:24.079Z,98004
2017-12-28T02:15:52.002Z,98000
2017-12-28T02:18:19.955Z,97998
2017-12-28T02:20:48.327Z,98007
2017-12-28T02:23:16.300Z,97999
2017-12-28T02:25:44.276Z,98012
2017-12-28T02:28:12.202Z,98006
2017-12-28T02:30:40.111Z,98014
2017-12-28T02:33:08.075Z,98007
2017-12-28T02:35:36.011Z,98012
2017-12-28T02:38:04.004Z,98021
2017-12-28T02:40:32.283Z,98029
2017-12-28T02:43:00.211Z,98023
2017-12-28T02:45:28.895Z,98017
2017-12-28T02:47:58.407Z,98038
2017-12-28T02:50:26.409Z,98028
2017-12-28T02:52:54.343Z,98043
2017-12-28T02:55:22.322Z,98047
2017-12-28T02:57:51.215Z,98033
2017-12-28T03:00:20.127Z,98034
2017-12-28T03:02:48.059Z,98038
2017-12-28T03:05:15.971Z,98039
2017-12-28T03:07:43.927Z,98045
2017-12-28T03:10:12.620Z,98049
2017-12-28T03:12:41.278Z,98051
2017-12-28T03:15:09.243Z,98049
2017-12-28T03:17:37.219Z,98044
2017-12-28T03:20:05.175Z,98050
2017-12-28T03:22:34.600Z,98049
2017-12-28T03:25:04.735Z,98052
2017-12-28T03:27:33.552Z,98051
2017-12-28T03:30:01.489Z,98048
2017-12-28T03:32:30.147Z,98046
2017-12-28T03:34:58.107Z,98052
2017-12-28T03:37:26.019Z,98060
2017-12-28T03:39:53.975Z,98064
2017-12-28T03:42:21.980Z,98064
2017-12-28T03:44:49.987Z,98065
2017-12-28T03:47:17.959Z,98069
2017-12-28T03:49:45.926Z,98072
2017-12-28T03:52:14.236Z,98084
2017-12-28T03:54:42.190Z,98086
2017-12-28T03:57:10.962Z,98090
2017-12-28T03:59:38.936Z,98098
2017-12-28T04:02:08.381Z,98097
2017-12-28T04:04:36.307Z,98113
2017-12-28T04:07:04.987Z,98116
2017-12-28T04:09:32.947Z,98098
2017-12-28T04:12:00.963Z,98124
2017-12-28T04:14:28.917Z,98123
2017-12-28T04:16:56.922Z,98130
2017-12-28T04:19:25.198Z,98123
2017-12-28T04:21:53.278Z,98115
2017-12-28T04:24:21.235Z,98124
2017-12-28T04:26:49.177Z,98125
2017-12-28T04:29:17.967Z,98121
2017-12-28T04:31:46.695Z,98126
2017-12-28T04:34:14.646Z,98134
2017-12-28T04:36:42.594Z,98146
2017-12-28T04:39:11.339Z,98156
2017-12-28T04:41:39.627Z,98149
2017-12-28T04:44:07.625Z,98156
2017-12-28T04:46:36.370Z,98172
2017-12-28T04:49:04.391Z,98167
2017-12-28T04:51:33.172Z,98174
2017-12-28T04:54:01.149Z,98184
2017-12-28T04:56:30.299Z,98193
2017-12-28T04:58:58.370Z,98201
2017-12-28T05:01:26.355Z,98197
2017-12-28T05:03:54.579Z,98208
2017-12-28T05:06:22.879Z,98211
2017-12-28T05:08:50.811Z,98214
2017-12-28T05:11:19.507Z,98206
2017-12-28T05:13:47.445Z,98192
2017-12-28T05:16:15.411Z,98197
2017-12-28T05:18:43.385Z,98199
2017-12-28T05:21:11.822Z,98201
2017-12-28T05:23:39.799Z,98205
2017-12-28T05:26:07.774Z,98214
2017-12-28T05:28:35.734Z,98220
2017-12-28T05:31:03.710Z,98243
2017-12-28T05:33:31.671Z,98262
2017-12-28T05:35:59.654Z,98252
2017-12-28T05:38:27.634Z,98263
2017-12-28T05:40:55.591Z,98250
2017-12-28T05:43:23.605Z,98271
2017-12-28T05:45:51.518Z,98289
2017-12-28T05:48:19.724Z,98287
2017-12-28T05:50:47.679Z,98290
2017-12-28T05:53:15.627Z,98302
2017-12-28T05:55:43.599Z,98297
2017-12-28T05:58:11.564Z,98295
2017-12-28T06:00:39.902Z,98306
2017-12-28T06:03:07.846Z,98312
2017-12-28T06:05:36.254Z,98315
2017-12-28T06:08:04.371Z,98332
2017-12-28T06:10:32.320Z,98331
2017-12-28T06:13:00.299Z,98330
2017-12-28T06:15:28.283Z,98332
2017-12-28T06:17:56.247Z,98334
2017-12-28T06:20:24.216Z,98352
2017-12-28T06:22:52.203Z,98344
2017-12-28T06:25:20.159Z,98357
2017-12-28T06:27:48.166Z,98381
2017-12-28T06:30:16.556Z,98344
2017-12-28T06:32:44.581Z,98383
2017-12-28T06:35:12.543Z,98398
2017-12-28T06:37:40.547Z,98400
2017-12-28T06:40:08.599Z,98401
2017-12-28T06:42:36.867Z,98385
2017-12-28T06:45:04.847Z,98405
2017-12-28T06:47:32.796Z,98423
2017-12-28T06:50:00.773Z,98434
2017-12-28T06:52:28.779Z,98420
2017-12-28T06:54:56.817Z,98424
2017-12-28T06:57:24.770Z,98418
2017-12-28T06:59:53.371Z,98410
2017-12-28T07:02:21.572Z,98419
2017-12-28T07:04:49.891Z,98428
2017-12-28T07:07:17.837Z,98429
2017-12-28T07:09:45.810Z,98434
2017-12-28T07:12:13.825Z,98434
2017-12-28T07:14:41.804Z,98432
2017-12-28T07:17:09.780Z,98450
2017-12-28T07:19:38.038Z,98456
2017-12-28T07:22:06.013Z,98453
2017-12-28T07:24:33.988Z,98455
2017-12-28T07:27:02.231Z,98457
2017-12-28T07:29:30.186Z,98453
2017-12-28T07:31:58.879Z,98461
2017-12-28T07:34:27.574Z,98461
2017-12-28T07:36:55.541Z,98465
2017-12-28T07:39:23.643Z,98465
2017-12-28T07:41:51.604Z,98462
2017-12-28T07:44:19.592Z,98456
2017-12-28T07:46:47.935Z,98458
2017-12-28T07:49:15.865Z,98472
2017-12-28T07:51:43.811Z,98476
2017-12-28T07:54:11.932Z,98478
2017-12-28T07:56:39.872Z,98482
2017-12-28T07:59:07.880Z,98494
2017-12-28T08:01:35.890Z,98503
2017-12-28T08:04:04.052Z,98509
2017-12-28T08:06:51.042Z,98509
2017-12-28T08:09:19.040Z,98520
2017-12-28T08:11:47.414Z,98509
2017-12-28T08:14:15.473Z,98514
2017-12-28T08:16:43.428Z,98505
2017-12-28T08:19:11.436Z,98518
2017-12-28T08:21:39.399Z,98519
2017-12-28T08:24:07.417Z,98527
2017-12-28T08:26:35.431Z,98529
2017-12-28T08:29:03.510Z,98536
2017-12-28T08:31:31.479Z,98524
2017-12-28T08:33:59.424Z,98523
2017-12-28T08:36:27.369Z,98527
2017-12-28T08:38:56.708Z,98526
2017-12-28T08:41:24.689Z,98529
2017-12-28T08:43:52.615Z,98540
2017-12-28T08:46:20.547Z,98529
2017-12-28T08:48:48.537Z,98539
2017-12-28T08:51:16.845Z,98522
2017-12-28T08:53:44.798Z,98541
2017-12-28T08:56:13.079Z,98530
2017-12-28T08:58:41.047Z,98534
2017-12-28T09:01:09.743Z,98531
2017-12-28T09:03:38.871Z,98537
2017-12-28T09:06:06.867Z,98546
2017-12-28T09:08:35.648Z,98541
2017-12-28T09:11:03.590Z,98549
2017-12-28T09:13:31.774Z,98552
2017-12-28T09:15:59.703Z,98566
2017-12-28T09:18:27.653Z,98571
2017-12-28T09:20:55.648Z,98576
2017-12-28T09:23:23.587Z,98567
2017-12-28T09:25:51.886Z,98571
2017-12-28T09:28:20.566Z,98582
2017-12-28T09:30:49.256Z,98578
2017-12-28T09:33:17.943Z,98586
2017-12-28T09:35:46.649Z,98589
2017-12-28T09:38:15.511Z,98586
2017-12-28T09:40:44.823Z,98590
2017-12-28T09:43:12.811Z,98597
2017-12-28T09:45:40.738Z,98592
2017-12-28T09:48:10.247Z,98601
2017-12-28T09:50:38.183Z,98606
2017-12-28T09:53:06.136Z,98605
2017-12-28T09:55:34.055Z,98614
2017-12-28T09:58:02.719Z,98620
2017-12-28T10:00:31.739Z,98626
2017-12-28T10:02:59.686Z,98640
2017-12-28T10:05:27.602Z,98622
2017-12-28T10:07:55.544Z,98634
2017-12-28T10:10:23.490Z,98635
2017-12-28T10:12:51.424Z,98649
2017-12-28T10:15:19.365Z,98651
2017-12-28T10:17:48.039Z,98658
2017-12-28T10:20:15.968Z,98659
2017-12-28T10:22:43.879Z,98658
2017-12-28T10:25:12.880Z,98657
2017-12-28T10:27:41.554Z,98661
2017-12-28T10:30:09.486Z,98662
2017-12-28T10:32:37.385Z,98676
2017-12-28T10:35:05.330Z,98676
2017-12-28T10:37:33.275Z,98683
2017-12-28T10:40:01.919Z,98684
2017-12-28T10:42:30.595Z,98679
2017-12-28T10:44:59.523Z,98683
2017-12-28T10:47:27.440Z,98674
2017-12-28T11:37:29.009Z,98724
2017-12-28T11:43:08.464Z,98727
2017-12-28T11:45:36.860Z,98727
2017-12-28T11:50:02.229Z,98727
2017-12-28T11:52:32.429Z,98740
2017-12-28T11:55:04.244Z,98748
2017-12-28T11:57:32.924Z,98744
2017-12-28T12:00:06.753Z,98735
2017-12-28T12:02:39.452Z,98745
2017-12-28T12:05:09.596Z,98749
2017-12-28T12:07:40.612Z,98744
2017-12-28T12:10:10.860Z,98744
2017-12-28T12:12:39.770Z,98751
2017-12-28T12:15:08.164Z,98755
2017-12-28T12:17:36.312Z,98760
2017-12-28T12:20:04.987Z,98768
2017-12-28T12:22:33.852Z,98774
2017-12-28T12:25:03.501Z,98769
2017-12-28T12:27:31.708Z,98782
2017-12-28T12:29:59.885Z,98776
2017-12-28T12:32:28.389Z,98773
2017-12-28T12:34:56.769Z,98769
2017-12-28T12:37:25.050Z,98767
2017-12-28T12:39:54.001Z,98772
2017-12-28T12:42:22.175Z,98765
2017-12-28T12:44:50.516Z,98771
2017-12-28T12:47:18.840Z,98769
2017-12-28T12:49:47.097Z,98772
2017-12-28T12:52:15.271Z,98764
2017-12-28T12:54:43.464Z,98775
2017-12-28T12:57:11.724Z,98770
2017-12-28T12:59:39.898Z,98780
2017-12-28T13:02:08.361Z,98788
2017-12-28T13:04:37.021Z,98779
2017-12-28T13:07:05.854Z,98793
2017-12-28T13:09:34.111Z,98788
2017-12-28T13:12:03.924Z,98791
2017-12-28T13:14:32.305Z,98797
2017-12-28T13:17:01.288Z,98805
2017-12-28T13:19:30.326Z,98810
2017-12-28T13:21:58.476Z,98803
2017-12-28T13:24:26.650Z,98814
2017-12-28T13:26:55.113Z,98817
2017-12-28T13:29:23.245Z,98808
2017-12-28T13:31:51.503Z,98819
2017-12-28T13:34:19.692Z,98828
2017-12-28T13:36:47.961Z,98823
2017-12-28T13:39:16.116Z,98828
2017-12-28T13:41:44.270Z,98820
2017-12-28T13:44:12.589Z,98823
2017-12-28T13:46:41.073Z,98820
2017-12-28T13:49:09.657Z,98822
2017-12-28T13:51:38.140Z,98837
2017-12-28T13:54:06.345Z,98828
2017-12-28T13:56:34.550Z,98826
2017-12-28T13:59:02.693Z,98832
2017-12-28T14:01:30.829Z,98835
2017-12-28T14:03:59.006Z,98839
2017-12-28T14:06:27.450Z,98851
2017-12-28T14:08:55.597Z,98849
2017-12-28T14:11:23.932Z,98859
2017-12-28T14:13:52.081Z,98869
2017-12-28T14:16:20.229Z,98867
2017-12-28T14:18:48.724Z,98872
2017-12-28T14:21:16.891Z,98873
2017-12-28T14:23:45.788Z,98864
2017-12-28T14:26:13.955Z,98868
2017-12-28T14:28:42.101Z,98876
2017-12-28T14:31:10.618Z,98881
2017-12-28T14:33:39.505Z,98876
2017-12-28T14:36:08.376Z,98878
2017-12-28T14:38:36.509Z,98880
2017-12-28T14:41:04.697Z,98891
2017-12-28T14:43:32.812Z,98892
2017-12-28T14:46:02.672Z,98896
2017-12-28T14:48:30.845Z,98888
2017-12-28T14:50:58.998Z,98885
2017-12-28T14:53:27.659Z,98883
2017-12-28T14:55:56.082Z,98892
2017-12-28T14:58:24.373Z,98893
2017-12-28T15:00:53.105Z,98905
2017-12-28T15:03:21.271Z,98909
2017-12-28T15:05:50.279Z,98908
2017-12-28T15:08:18.409Z,98909
2017-12-28T15:10:46.557Z,98911
2017-12-28T15:13:14.701Z,98908
2017-12-28T15:15:42.860Z,98913
2017-12-28T15:18:11.001Z,98916
2017-12-28T15:20:39.154Z,98921
2017-12-28T15:23:07.324Z,98916
2017-12-28T15:25:35.964Z,98917
2017-12-28T15:28:05.429Z,98913
2017-12-28T15:30:33.808Z,98926
2017-12-28T15:33:02.033Z,98917
2017-12-28T15:35:30.972Z,98923
2017-12-28T15:37:59.142Z,98936
2017-12-28T15:40:27.388Z,98941
2017-12-28T15:42:56.260Z,98939
2017-12-28T15:45:25.210Z,98931
2017-12-28T15:47:53.523Z,98936
2017-12-28T15:50:21.660Z,98933
2017-12-28T15:52:49.774Z,98949
2017-12-28T15:55:18.733Z,98948
2017-12-28T15:57:46.909Z,98939
2017-12-28T16:00:15.049Z,98954
2017-12-28T16:02:44.210Z,98956
2017-12-28T16:05:12.505Z,98952
2017-12-28T16:07:41.489Z,98967
2017-12-28T16:10:09.687Z,98970
2017-12-28T16:12:37.838Z,98964
2017-12-28T16:15:06.763Z,98977
2017-12-28T16:17:34.895Z,98975
2017-12-28T16:20:03.849Z,98985
2017-12-28T16:22:32.464Z,98981
2017-12-28T16:25:02.309Z,98986
2017-12-28T16:27:31.297Z,98982
2017-12-28T16:30:00.193Z,98980
2017-12-28T16:32:28.465Z,98982
2017-12-28T16:34:56.611Z,98985
2017-12-28T16:37:24.787Z,98975
2017-12-28T16:39:53.212Z,99000
2017-12-28T16:42:21.410Z,99008
2017-12-28T16:44:49.541Z,99013
2017-12-28T16:47:18.490Z,98997
2017-12-28T16:49:46.908Z,99018
2017-12-28T16:52:15.801Z,99006
2017-12-28T16:54:43.944Z,99011
2017-12-28T16:57:12.074Z,99014
2017-12-28T16:59:41.378Z,99012
2017-12-28T17:02:09.520Z,99027
2017-12-28T17:04:38.565Z,99024
2017-12-28T17:07:07.441Z,99027
2017-12-28T17:09:36.866Z,99026
2017-12-28T17:12:06.250Z,99025
2017-12-28T17:14:34.421Z,99030
2017-12-28T17:17:02.565Z,99034
2017-12-28T17:19:30.886Z,99036
2017-12-28T17:21:59.033Z,99049
2017-12-28T17:24:27.177Z,99051
2017-12-28T17:26:55.325Z,99053
2017-12-28T17:29:24.467Z,99043
2017-12-28T17:35:24.870Z,99049
2017-12-28T17:37:53.456Z,99055
2017-12-28T17:40:21.600Z,99059
2017-12-28T17:42:49.738Z,99057
2017-12-28T17:45:18.633Z,99063
2017-12-28T17:47:46.781Z,99069
2017-12-28T17:50:17.308Z,99067
2017-12-28T17:52:45.484Z,99060
2017-12-28T17:55:13.633Z,99081
2017-12-28T17:57:41.793Z,99075
2017-12-28T18:00:09.961Z,99076
2017-12-28T18:02:38.185Z,99083
2017-12-28T18:05:06.325Z,99084
2017-12-28T18:07:34.448Z,99089
2017-12-28T18:10:02.597Z,99089
2017-12-28T18:12:31.240Z,99095
2017-12-28T18:15:00.235Z,99090
2017-12-28T18:17:28.371Z,99106
2017-12-28T18:19:56.491Z,99107
2017-12-28T18:22:24.640Z,99116
2017-12-28T18:24:52.772Z,99103
2017-12-28T18:27:20.969Z,99110
2017-12-28T18:29:49.115Z,99112
2017-12-28T18:32:17.251Z,99110
2017-12-28T18:34:45.405Z,99117
2017-12-28T18:37:13.985Z,99111
2017-12-28T18:39:42.893Z,99123
2017-12-28T18:42:11.049Z,99119
2017-12-28T18:44:39.214Z,99124
2017-12-28T18:47:07.349Z,99137
2017-12-28T18:49:35.485Z,99139
2017-12-28T18:52:05.125Z,99142
2017-12-28T18:54:33.305Z,99147
2017-12-28T18:57:01.421Z,99144
2017-12-28T18:59:30.306Z,99139
2017-12-28T19:01:58.443Z,99146
2017-12-28T19:04:26.848Z,99145
2017-12-28T19:06:54.997Z,99154
2017-12-28T19:09:23.125Z,99162
2017-12-28T19:11:51.293Z,99159
2017-12-28T19:14:20.170Z,99152
2017-12-28T19:16:48.333Z,99162
2017-12-28T19:19:17.220Z,99155
2017-12-28T19:21:45.413Z,99161
2017-12-28T19:24:14.464Z,99165
2017-12-28T19:26:42.933Z,99162
2017-12-28T19:29:11.422Z,99167
2017-12-28T19:31:39.589Z,99169
2017-12-28T19:34:07.748Z,99176
2017-12-28T19:36:39.710Z,99169
2017-12-28T19:39:07.868Z,99180
2017-12-28T19:41:36.793Z,99174
2017-12-28T19:44:05.028Z,99179
2017-12-28T19:46:33.892Z,99180
2017-12-28T19:49:02.036Z,99186
2017-12-28T19:51:30.168Z,99183
2017-12-28T19:53:58.325Z,99196
2017-12-28T19:56:26.480Z,99185
2017-12-28T19:58:54.933Z,99202
2017-12-28T20:01:23.080Z,99200
2017-12-28T20:03:51.201Z,99204
2017-12-28T20:06:19.366Z,99193
2017-12-28T20:08:48.245Z,99202
2017-12-28T20:11:16.395Z,99202
2017-12-28T20:13:44.553Z,99208
2017-12-28T20:16:12.692Z,99192
2017-12-28T20:18:41.221Z,99200
2017-12-28T20:21:10.111Z,99209
2017-12-28T20:23:40.565Z,99208
2017-12-28T20:26:08.693Z,99224
2017-12-28T20:28:36.874Z,99219
2017-12-28T20:31:05.004Z,99213
2017-12-28T20:33:33.154Z,99219
2017-12-28T20:36:01.298Z,99220
2017-12-28T20:38:30.214Z,99216
2017-12-28T20:40:58.388Z,99233
2017-12-28T20:43:27.285Z,99235
2017-12-28T20:45:55.829Z,99243
2017-12-28T20:48:23.997Z,99236
2017-12-28T20:50:52.948Z,99250
2017-12-28T20:53:21.177Z,99244
2017-12-28T20:55:49.309Z,99257
2017-12-28T20:58:17.452Z,99251
2017-12-28T21:00:45.644Z,99247
2017-12-28T21:03:13.821Z,99252
2017-12-28T21:05:41.972Z,99249
2017-12-28T21:08:11.338Z,99263
2017-12-28T21:10:40.298Z,99261
2017-12-28T21:13:09.180Z,99262
2017-12-28T21:15:37.751Z,99260
2017-12-28T21:18:06.771Z,99272
2017-12-28T21:20:35.024Z,99271
2017-12-28T21:23:03.194Z,99268
2017-12-28T21:25:31.344Z,99271
2017-12-28T21:28:01.708Z,99271
2017-12-28T21:30:30.870Z,99268
2017-12-28T21:32:59.773Z,99277
2017-12-28T21:35:29.867Z,99271
2017-12-28T21:37:58.338Z,99280
2017-12-28T21:40:27.350Z,99282
2017-12-28T21:42:57.150Z,99288
2017-12-28T21:45:25.272Z,99278
2017-12-28T21:47:53.408Z,99277
2017-12-28T21:50:23.514Z,99283
2017-12-28T21:52:52.251Z,99271
2017-12-28T21:55:21.553Z,99293
2017-12-28T21:57:49.950Z,99276
2017-12-28T22:00:19.542Z,99286
2017-12-28T22:02:47.705Z,99292
2017-12-28T22:05:16.143Z,99290
2017-12-28T22:07:44.320Z,99292
2017-12-28T22:10:12.565Z,99295
2017-12-28T22:12:40.838Z,99307
2017-12-28T22:15:09.334Z,99311
2017-12-28T22:17:38.153Z,99317
2017-12-28T22:20:06.298Z,99323
2017-12-28T22:22:34.449Z,99330
2017-12-28T22:25:02.633Z,99331
2017-12-28T22:27:31.384Z,99334
2017-12-28T22:29:59.568Z,99323
2017-12-28T22:32:27.740Z,99336
2017-12-28T22:34:55.915Z,99335
2017-12-28T22:37:24.045Z,99329
2017-12-28T22:39:52.257Z,99334
2017-12-28T22:42:21.189Z,99343
2017-12-28T22:44:49.354Z,99357
2017-12-28T22:47:17.501Z,99339
2017-12-28T22:49:45.655Z,99344
2017-12-28T22:52:13.804Z,99339
2017-12-28T22:54:42.932Z,99343
2017-12-28T22:57:11.824Z,99332
2017-12-28T22:59:40.739Z,99334
2017-12-28T23:02:08.910Z,99348
2017-12-28T23:04:37.473Z,99344
2017-12-28T23:07:06.698Z,99345
2017-12-28T23:09:35.005Z,99359
2017-12-28T23:12:03.309Z,99364
2017-12-28T23:14:32.264Z,99349
2017-12-28T23:17:01.413Z,99369
2017-12-28T23:19:29.639Z,99364
2017-12-28T23:21:59.016Z,99364
2017-12-28T23:24:27.266Z,99366
2017-12-28T23:26:56.445Z,99373
2017-12-28T23:29:24.569Z,99380
2017-12-28T23:31:53.048Z,99379
2017-12-28T23:34:21.186Z,99392
2017-12-28T23:36:49.837Z,99387
2017-12-28T23:39:20.973Z,99390
2017-12-28T23:41:49.160Z,99387
2017-12-28T23:44:17.703Z,99296
2017-12-28T23:46:46.094Z,99386
2017-12-28T23:49:15.585Z,99394
2017-12-28T23:51:44.505Z,99389
2017-12-28T23:54:13.741Z,99394
2017-12-28T23:56:42.473Z,99395
2017-12-28T23:59:13.170Z,99398
